sensor_id;sensor_type;location;lat;lon;timestamp;pressure;altitude;pressure_sealevel;temperature;humidity
49645;BME280;36494;50.730;-1.932;2022-11-12T00:00:11;102178.92;;;11.53;100.00
49645;BME280;36494;50.730;-1.932;2022-11-12T00:02:36;102182.07;;;11.55;100.00
49645;BME280;36494;50.730;-1.932;2022-11-12T00:05:01;102182.97;;;11.56;100.00
49645;BME280;36494;50.730;-1.932;2022-11-12T00:07:26;102183.55;;;11.56;100.00
49645;BME280;36494;50.730;-1.932;2022-11-12T00:09:51;102182.96;;;11.58;100.00
49645;BME280;36494;50.730;-1.932;2022-11-12T00:12:16;102182.34;;;11.57;100.00
49645;BME280;36494;50.730;-1.932;2022-11-12T00:14:42;102184.15;;;11.60;100.00
49645;BME280;36494;50.730;-1.932;2022-11-12T00:17:07;102181.55;;;11.62;100.00
49645;BME280;36494;50.730;-1.932;2022-11-12T00:19:32;102179.36;;;11.63;100.00
49645;BME280;36494;50.730;-1.932;2022-11-12T00:21:58;102178.29;;;11.64;100.00
49645;BME280;36494;50.730;-1.932;2022-11-12T00:24:24;102177.43;;;11.63;100.00
49645;BME280;36494;50.730;-1.932;2022-11-12T00:26:49;102176.56;;;11.67;100.00
49645;BME280;36494;50.730;-1.932;2022-11-12T00:29:15;102179.46;;;11.71;100.00
49645;BME280;36494;50.730;-1.932;2022-11-12T00:31:41;102177.88;;;11.73;100.00
49645;BME280;36494;50.730;-1.932;2022-11-12T00:34:06;102177.08;;;11.69;100.00
49645;BME280;36494;50.730;-1.932;2022-11-12T00:36:32;102180.16;;;11.74;100.00
49645;BME280;36494;50.730;-1.932;2022-11-12T00:38:57;102179.85;;;11.78;100.00
49645;BME280;36494;50.730;-1.932;2022-11-12T00:41:23;102181.21;;;11.81;100.00
49645;BME280;36494;50.730;-1.932;2022-11-12T00:43:48;102177.22;;;11.85;100.00
49645;BME280;36494;50.730;-1.932;2022-11-12T00:46:14;102172.11;;;11.86;100.00
49645;BME280;36494;50.730;-1.932;2022-11-12T00:48:40;102172.83;;;11.87;100.00
49645;BME280;36494;50.730;-1.932;2022-11-12T00:51:06;102173.39;;;11.91;100.00
49645;BME280;36494;50.730;-1.932;2022-11-12T00:53:31;102169.01;;;11.94;100.00
49645;BME280;36494;50.730;-1.932;2022-11-12T00:56:02;102167.14;;;11.94;100.00
49645;BME280;36494;50.730;-1.932;2022-11-12T00:58:22;102167.31;;;11.99;100.00
49645;BME280;36494;50.730;-1.932;2022-11-12T01:00:47;102165.39;;;11.96;100.00
49645;BME280;36494;50.730;-1.932;2022-11-12T01:03:13;102161.31;;;11.96;100.00
49645;BME280;36494;50.730;-1.932;2022-11-12T01:05:39;102163.73;;;11.99;100.00
49645;BME280;36494;50.730;-1.932;2022-11-12T01:08:04;102162.07;;;12.04;100.00
49645;BME280;36494;50.730;-1.932;2022-11-12T01:10:30;102162.35;;;11.99;100.00
49645;BME280;36494;50.730;-1.932;2022-11-12T01:12:56;102158.79;;;11.90;100.00
49645;BME280;36494;50.730;-1.932;2022-11-12T01:15:21;102156.56;;;11.98;100.00
49645;BME280;36494;50.730;-1.932;2022-11-12T01:17:46;102150.98;;;11.95;100.00
49645;BME280;36494;50.730;-1.932;2022-11-12T01:20:11;102147.38;;;11.93;100.00
49645;BME280;36494;50.730;-1.932;2022-11-12T01:22:37;102146.00;;;11.99;100.00
49645;BME280;36494;50.730;-1.932;2022-11-12T01:25:02;102139.88;;;11.98;100.00
49645;BME280;36494;50.730;-1.932;2022-11-12T01:27:27;102138.85;;;11.91;100.00
49645;BME280;36494;50.730;-1.932;2022-11-12T01:29:53;102134.48;;;11.93;100.00
49645;BME280;36494;50.730;-1.932;2022-11-12T01:32:18;102136.13;;;11.94;100.00
49645;BME280;36494;50.730;-1.932;2022-11-12T01:34:44;102136.73;;;11.86;100.00
49645;BME280;36494;50.730;-1.932;2022-11-12T01:37:10;102136.27;;;11.91;100.00
49645;BME280;36494;50.730;-1.932;2022-11-12T01:39:36;102138.75;;;11.85;100.00
49645;BME280;36494;50.730;-1.932;2022-11-12T01:42:02;102137.36;;;11.76;100.00
49645;BME280;36494;50.730;-1.932;2022-11-12T01:44:30;102132.68;;;11.77;100.00
49645;BME280;36494;50.730;-1.932;2022-11-12T01:46:57;102128.65;;;11.71;100.00
49645;BME280;36494;50.730;-1.932;2022-11-12T01:49:20;102121.92;;;11.78;100.00
49645;BME280;36494;50.730;-1.932;2022-11-12T01:51:47;102124.90;;;11.74;100.00
49645;BME280;36494;50.730;-1.932;2022-11-12T01:54:12;102125.03;;;11.71;100.00
49645;BME280;36494;50.730;-1.932;2022-11-12T01:56:35;102119.93;;;11.81;100.00
49645;BME280;36494;50.730;-1.932;2022-11-12T01:59:02;102113.79;;;11.82;100.00
49645;BME280;36494;50.730;-1.932;2022-11-12T02:01:25;102112.44;;;11.80;100.00
49645;BME280;36494;50.730;-1.932;2022-11-12T02:03:50;102112.42;;;11.74;100.00
49645;BME280;36494;50.730;-1.932;2022-11-12T02:06:16;102112.91;;;11.75;100.00
49645;BME280;36494;50.730;-1.932;2022-11-12T02:08:43;102113.27;;;11.76;100.00
49645;BME280;36494;50.730;-1.932;2022-11-12T02:11:12;102111.89;;;11.75;100.00
49645;BME280;36494;50.730;-1.932;2022-11-12T02:13:33;102106.82;;;11.72;100.00
49645;BME280;36494;50.730;-1.932;2022-11-12T02:15:58;102103.04;;;11.70;100.00
49645;BME280;36494;50.730;-1.932;2022-11-12T02:18:24;102100.46;;;11.66;100.00
49645;BME280;36494;50.730;-1.932;2022-11-12T02:20:53;102100.52;;;11.68;100.00
49645;BME280;36494;50.730;-1.932;2022-11-12T02:23:14;102105.79;;;11.65;100.00
49645;BME280;36494;50.730;-1.932;2022-11-12T02:25:40;102106.56;;;11.63;100.00
49645;BME280;36494;50.730;-1.932;2022-11-12T02:28:06;102100.13;;;11.51;100.00
49645;BME280;36494;50.730;-1.932;2022-11-12T02:30:32;102098.04;;;11.47;100.00
49645;BME280;36494;50.730;-1.932;2022-11-12T02:32:55;102103.08;;;11.48;100.00
49645;BME280;36494;50.730;-1.932;2022-11-12T02:35:20;102107.74;;;11.54;100.00
49645;BME280;36494;50.730;-1.932;2022-11-12T02:37:46;102106.13;;;11.53;100.00
49645;BME280;36494;50.730;-1.932;2022-11-12T02:40:11;102103.23;;;11.55;100.00
49645;BME280;36494;50.730;-1.932;2022-11-12T02:42:37;102099.58;;;11.46;100.00
49645;BME280;36494;50.730;-1.932;2022-11-12T02:45:02;102098.40;;;11.48;100.00
49645;BME280;36494;50.730;-1.932;2022-11-12T02:47:27;102095.18;;;11.43;100.00
49645;BME280;36494;50.730;-1.932;2022-11-12T02:49:52;102091.29;;;11.40;100.00
49645;BME280;36494;50.730;-1.932;2022-11-12T02:52:17;102091.98;;;11.39;100.00
49645;BME280;36494;50.730;-1.932;2022-11-12T02:54:43;102091.75;;;11.37;100.00
49645;BME280;36494;50.730;-1.932;2022-11-12T02:57:09;102087.76;;;11.36;100.00
49645;BME280;36494;50.730;-1.932;2022-11-12T02:59:34;102088.14;;;11.42;100.00
49645;BME280;36494;50.730;-1.932;2022-11-12T03:02:00;102087.65;;;11.42;100.00
49645;BME280;36494;50.730;-1.932;2022-11-12T03:04:25;102085.58;;;11.34;100.00
49645;BME280;36494;50.730;-1.932;2022-11-12T03:06:51;102087.15;;;11.40;100.00
49645;BME280;36494;50.730;-1.932;2022-11-12T03:09:17;102087.41;;;11.44;100.00
49645;BME280;36494;50.730;-1.932;2022-11-12T03:11:42;102086.95;;;11.46;100.00
49645;BME280;36494;50.730;-1.932;2022-11-12T03:14:08;102087.33;;;11.45;100.00
49645;BME280;36494;50.730;-1.932;2022-11-12T03:16:33;102092.34;;;11.48;100.00
49645;BME280;36494;50.730;-1.932;2022-11-12T03:18:58;102092.31;;;11.47;100.00
49645;BME280;36494;50.730;-1.932;2022-11-12T03:21:24;102095.56;;;11.50;100.00
49645;BME280;36494;50.730;-1.932;2022-11-12T03:23:49;102092.42;;;11.51;100.00
49645;BME280;36494;50.730;-1.932;2022-11-12T03:26:14;102095.34;;;11.49;100.00
49645;BME280;36494;50.730;-1.932;2022-11-12T03:28:40;102092.75;;;11.53;100.00
49645;BME280;36494;50.730;-1.932;2022-11-12T03:31:05;102092.38;;;11.51;100.00
49645;BME280;36494;50.730;-1.932;2022-11-12T03:33:31;102087.81;;;11.56;100.00
49645;BME280;36494;50.730;-1.932;2022-11-12T03:35:56;102085.02;;;11.53;100.00
49645;BME280;36494;50.730;-1.932;2022-11-12T03:38:21;102084.30;;;11.54;100.00
49645;BME280;36494;50.730;-1.932;2022-11-12T03:40:48;102082.57;;;11.57;100.00
49645;BME280;36494;50.730;-1.932;2022-11-12T03:43:13;102081.39;;;11.56;100.00
49645;BME280;36494;50.730;-1.932;2022-11-12T03:45:39;102076.90;;;11.59;100.00
49645;BME280;36494;50.730;-1.932;2022-11-12T03:48:04;102077.37;;;11.61;100.00
49645;BME280;36494;50.730;-1.932;2022-11-12T03:50:29;102072.02;;;11.64;100.00
49645;BME280;36494;50.730;-1.932;2022-11-12T03:52:56;102075.39;;;11.64;100.00
49645;BME280;36494;50.730;-1.932;2022-11-12T03:55:21;102079.85;;;11.70;100.00
49645;BME280;36494;50.730;-1.932;2022-11-12T03:57:47;102081.30;;;11.70;100.00
49645;BME280;36494;50.730;-1.932;2022-11-12T04:00:11;102088.37;;;11.75;100.00
49645;BME280;36494;50.730;-1.932;2022-11-12T04:02:37;102083.34;;;11.81;100.00
49645;BME280;36494;50.730;-1.932;2022-11-12T04:05:03;102079.33;;;11.81;100.00
49645;BME280;36494;50.730;-1.932;2022-11-12T04:07:28;102079.32;;;11.79;100.00
49645;BME280;36494;50.730;-1.932;2022-11-12T04:09:53;102075.37;;;11.86;100.00
49645;BME280;36494;50.730;-1.932;2022-11-12T04:12:18;102073.64;;;11.81;100.00
49645;BME280;36494;50.730;-1.932;2022-11-12T04:14:44;102069.97;;;11.83;100.00
49645;BME280;36494;50.730;-1.932;2022-11-12T04:17:09;102070.12;;;11.81;100.00
49645;BME280;36494;50.730;-1.932;2022-11-12T04:19:35;102072.79;;;11.88;100.00
49645;BME280;36494;50.730;-1.932;2022-11-12T04:22:04;102071.86;;;11.94;100.00
49645;BME280;36494;50.730;-1.932;2022-11-12T04:24:28;102071.88;;;11.98;100.00
49645;BME280;36494;50.730;-1.932;2022-11-12T04:26:52;102066.55;;;11.97;100.00
49645;BME280;36494;50.730;-1.932;2022-11-12T04:29:17;102063.48;;;12.00;100.00
49645;BME280;36494;50.730;-1.932;2022-11-12T04:31:42;102063.41;;;12.03;100.00
49645;BME280;36494;50.730;-1.932;2022-11-12T04:34:08;102063.08;;;12.05;100.00
49645;BME280;36494;50.730;-1.932;2022-11-12T04:36:33;102064.03;;;12.08;100.00
49645;BME280;36494;50.730;-1.932;2022-11-12T04:38:58;102066.12;;;12.07;100.00
49645;BME280;36494;50.730;-1.932;2022-11-12T04:41:23;102065.99;;;12.09;100.00
49645;BME280;36494;50.730;-1.932;2022-11-12T04:43:49;102062.09;;;12.08;100.00
49645;BME280;36494;50.730;-1.932;2022-11-12T04:46:14;102061.44;;;12.11;100.00
49645;BME280;36494;50.730;-1.932;2022-11-12T04:48:39;102054.15;;;12.16;100.00
49645;BME280;36494;50.730;-1.932;2022-11-12T04:51:05;102054.81;;;12.20;100.00
49645;BME280;36494;50.730;-1.932;2022-11-12T04:53:31;102054.31;;;12.22;100.00
49645;BME280;36494;50.730;-1.932;2022-11-12T04:55:57;102052.95;;;12.21;100.00
49645;BME280;36494;50.730;-1.932;2022-11-12T04:58:22;102053.80;;;12.22;100.00
49645;BME280;36494;50.730;-1.932;2022-11-12T05:00:47;102056.01;;;12.24;100.00
49645;BME280;36494;50.730;-1.932;2022-11-12T05:03:12;102053.74;;;12.26;100.00
49645;BME280;36494;50.730;-1.932;2022-11-12T05:05:37;102048.31;;;12.29;100.00
49645;BME280;36494;50.730;-1.932;2022-11-12T05:08:02;102042.53;;;12.32;100.00
49645;BME280;36494;50.730;-1.932;2022-11-12T05:10:28;102037.18;;;12.33;100.00
49645;BME280;36494;50.730;-1.932;2022-11-12T05:12:54;102037.53;;;12.35;100.00
49645;BME280;36494;50.730;-1.932;2022-11-12T05:15:19;102034.91;;;12.38;100.00
49645;BME280;36494;50.730;-1.932;2022-11-12T05:17:45;102030.68;;;12.40;100.00
49645;BME280;36494;50.730;-1.932;2022-11-12T05:20:11;102023.78;;;12.40;100.00
49645;BME280;36494;50.730;-1.932;2022-11-12T05:22:35;102025.66;;;12.42;100.00
49645;BME280;36494;50.730;-1.932;2022-11-12T05:25:01;102029.97;;;12.44;100.00
49645;BME280;36494;50.730;-1.932;2022-11-12T05:27:26;102035.46;;;12.42;100.00
49645;BME280;36494;50.730;-1.932;2022-11-12T05:29:51;102034.89;;;12.44;100.00
49645;BME280;36494;50.730;-1.932;2022-11-12T05:32:17;102030.73;;;12.44;100.00
49645;BME280;36494;50.730;-1.932;2022-11-12T05:34:42;102030.90;;;12.48;100.00
49645;BME280;36494;50.730;-1.932;2022-11-12T05:37:10;102034.80;;;12.53;100.00
49645;BME280;36494;50.730;-1.932;2022-11-12T05:39:33;102041.95;;;12.52;100.00
49645;BME280;36494;50.730;-1.932;2022-11-12T05:42:00;102037.63;;;12.51;100.00
49645;BME280;36494;50.730;-1.932;2022-11-12T05:44:24;102037.95;;;12.48;100.00
49645;BME280;36494;50.730;-1.932;2022-11-12T05:46:50;102029.34;;;12.51;100.00
49645;BME280;36494;50.730;-1.932;2022-11-12T05:49:15;102026.92;;;12.53;100.00
49645;BME280;36494;50.730;-1.932;2022-11-12T05:51:41;102022.26;;;12.54;100.00
49645;BME280;36494;50.730;-1.932;2022-11-12T05:54:06;102028.00;;;12.59;100.00
49645;BME280;36494;50.730;-1.932;2022-11-12T05:56:31;102030.17;;;12.60;100.00
49645;BME280;36494;50.730;-1.932;2022-11-12T05:58:57;102030.13;;;12.66;100.00
49645;BME280;36494;50.730;-1.932;2022-11-12T06:01:22;102033.12;;;12.69;100.00
49645;BME280;36494;50.730;-1.932;2022-11-12T06:03:47;102034.09;;;12.75;100.00
49645;BME280;36494;50.730;-1.932;2022-11-12T06:06:12;102036.57;;;12.73;100.00
49645;BME280;36494;50.730;-1.932;2022-11-12T06:08:38;102042.08;;;12.76;100.00
49645;BME280;36494;50.730;-1.932;2022-11-12T06:11:03;102038.77;;;12.77;100.00
49645;BME280;36494;50.730;-1.932;2022-11-12T06:13:29;102034.58;;;12.78;100.00
49645;BME280;36494;50.730;-1.932;2022-11-12T06:15:54;102040.34;;;12.76;100.00
49645;BME280;36494;50.730;-1.932;2022-11-12T06:18:19;102042.55;;;12.74;100.00
49645;BME280;36494;50.730;-1.932;2022-11-12T06:20:44;102046.42;;;12.74;100.00
49645;BME280;36494;50.730;-1.932;2022-11-12T06:23:09;102045.96;;;12.67;100.00
49645;BME280;36494;50.730;-1.932;2022-11-12T06:25:35;102047.11;;;12.70;100.00
49645;BME280;36494;50.730;-1.932;2022-11-12T06:28:00;102042.24;;;12.69;100.00
49645;BME280;36494;50.730;-1.932;2022-11-12T06:30:25;102047.70;;;12.72;100.00
49645;BME280;36494;50.730;-1.932;2022-11-12T06:32:52;102050.13;;;12.71;100.00
49645;BME280;36494;50.730;-1.932;2022-11-12T06:35:17;102050.68;;;12.74;100.00
49645;BME280;36494;50.730;-1.932;2022-11-12T06:37:41;102052.44;;;12.74;100.00
49645;BME280;36494;50.730;-1.932;2022-11-12T06:40:08;102056.72;;;12.74;100.00
49645;BME280;36494;50.730;-1.932;2022-11-12T06:42:32;102060.06;;;12.77;100.00
49645;BME280;36494;50.730;-1.932;2022-11-12T06:44:58;102062.62;;;12.72;100.00
49645;BME280;36494;50.730;-1.932;2022-11-12T06:47:23;102058.91;;;12.75;100.00
49645;BME280;36494;50.730;-1.932;2022-11-12T06:49:48;102060.97;;;12.74;100.00
49645;BME280;36494;50.730;-1.932;2022-11-12T06:52:14;102061.82;;;12.70;100.00
49645;BME280;36494;50.730;-1.932;2022-11-12T06:54:39;102060.81;;;12.71;100.00
49645;BME280;36494;50.730;-1.932;2022-11-12T06:57:05;102056.80;;;12.77;100.00
49645;BME280;36494;50.730;-1.932;2022-11-12T06:59:30;102053.03;;;12.80;100.00
49645;BME280;36494;50.730;-1.932;2022-11-12T07:01:55;102049.38;;;12.75;100.00
49645;BME280;36494;50.730;-1.932;2022-11-12T07:04:22;102049.59;;;12.82;100.00
49645;BME280;36494;50.730;-1.932;2022-11-12T07:06:46;102055.48;;;12.85;100.00
49645;BME280;36494;50.730;-1.932;2022-11-12T07:09:12;102058.45;;;12.79;100.00
49645;BME280;36494;50.730;-1.932;2022-11-12T07:11:38;102056.96;;;12.82;100.00
49645;BME280;36494;50.730;-1.932;2022-11-12T07:14:04;102053.37;;;12.79;100.00
49645;BME280;36494;50.730;-1.932;2022-11-12T07:16:28;102050.81;;;12.84;100.00
49645;BME280;36494;50.730;-1.932;2022-11-12T07:18:53;102057.76;;;12.85;100.00
49645;BME280;36494;50.730;-1.932;2022-11-12T07:21:19;102060.14;;;12.84;100.00
49645;BME280;36494;50.730;-1.932;2022-11-12T07:23:46;102058.75;;;12.87;100.00
49645;BME280;36494;50.730;-1.932;2022-11-12T07:26:12;102057.40;;;12.82;100.00
49645;BME280;36494;50.730;-1.932;2022-11-12T07:28:35;102053.94;;;12.88;100.00
49645;BME280;36494;50.730;-1.932;2022-11-12T07:31:03;102055.66;;;12.86;100.00
49645;BME280;36494;50.730;-1.932;2022-11-12T07:33:27;102057.38;;;12.87;100.00
49645;BME280;36494;50.730;-1.932;2022-11-12T07:35:58;102059.84;;;12.91;100.00
49645;BME280;36494;50.730;-1.932;2022-11-12T07:38:16;102073.07;;;12.88;100.00
49645;BME280;36494;50.730;-1.932;2022-11-12T07:40:42;102072.28;;;12.90;100.00
49645;BME280;36494;50.730;-1.932;2022-11-12T07:43:07;102072.17;;;12.92;100.00
49645;BME280;36494;50.730;-1.932;2022-11-12T07:45:33;102072.09;;;12.98;100.00
49645;BME280;36494;50.730;-1.932;2022-11-12T07:47:58;102071.74;;;13.03;100.00
49645;BME280;36494;50.730;-1.932;2022-11-12T07:50:24;102074.47;;;13.03;100.00
49645;BME280;36494;50.730;-1.932;2022-11-12T07:52:49;102079.66;;;13.06;100.00
49645;BME280;36494;50.730;-1.932;2022-11-12T07:55:15;102074.87;;;13.08;100.00
49645;BME280;36494;50.730;-1.932;2022-11-12T07:57:40;102075.54;;;13.12;100.00
49645;BME280;36494;50.730;-1.932;2022-11-12T08:00:07;102076.32;;;13.09;100.00
49645;BME280;36494;50.730;-1.932;2022-11-12T08:02:31;102077.70;;;13.10;100.00
49645;BME280;36494;50.730;-1.932;2022-11-12T08:04:56;102080.59;;;13.11;100.00
49645;BME280;36494;50.730;-1.932;2022-11-12T08:07:21;102086.52;;;13.15;100.00
49645;BME280;36494;50.730;-1.932;2022-11-12T08:09:47;102086.04;;;13.19;100.00
49645;BME280;36494;50.730;-1.932;2022-11-12T08:12:13;102089.81;;;13.18;100.00
49645;BME280;36494;50.730;-1.932;2022-11-12T08:14:38;102098.00;;;13.22;100.00
49645;BME280;36494;50.730;-1.932;2022-11-12T08:17:03;102096.58;;;13.23;100.00
49645;BME280;36494;50.730;-1.932;2022-11-12T08:19:29;102098.00;;;13.29;100.00
49645;BME280;36494;50.730;-1.932;2022-11-12T08:21:55;102095.56;;;13.33;100.00
49645;BME280;36494;50.730;-1.932;2022-11-12T08:24:20;102100.10;;;13.36;100.00
49645;BME280;36494;50.730;-1.932;2022-11-12T08:26:46;102101.44;;;13.36;100.00
49645;BME280;36494;50.730;-1.932;2022-11-12T08:29:11;102101.23;;;13.43;100.00
49645;BME280;36494;50.730;-1.932;2022-11-12T08:31:36;102101.83;;;13.49;100.00
49645;BME280;36494;50.730;-1.932;2022-11-12T08:34:01;102105.86;;;13.52;100.00
49645;BME280;36494;50.730;-1.932;2022-11-12T08:36:27;102105.90;;;13.54;100.00
49645;BME280;36494;50.730;-1.932;2022-11-12T08:38:51;102103.52;;;13.61;100.00
49645;BME280;36494;50.730;-1.932;2022-11-12T08:41:17;102099.74;;;13.66;100.00
49645;BME280;36494;50.730;-1.932;2022-11-12T08:43:42;102095.93;;;13.68;100.00
49645;BME280;36494;50.730;-1.932;2022-11-12T08:46:08;102096.98;;;13.69;100.00
49645;BME280;36494;50.730;-1.932;2022-11-12T08:48:34;102103.43;;;13.67;100.00
49645;BME280;36494;50.730;-1.932;2022-11-12T08:51:00;102106.30;;;13.74;100.00
49645;BME280;36494;50.730;-1.932;2022-11-12T08:53:24;102105.56;;;13.78;100.00
49645;BME280;36494;50.730;-1.932;2022-11-12T08:55:51;102106.61;;;13.83;100.00
49645;BME280;36494;50.730;-1.932;2022-11-12T08:58:14;102109.01;;;13.88;100.00
49645;BME280;36494;50.730;-1.932;2022-11-12T09:00:42;102099.76;;;13.92;100.00
49645;BME280;36494;50.730;-1.932;2022-11-12T09:03:07;102095.42;;;13.94;100.00
49645;BME280;36494;50.730;-1.932;2022-11-12T09:05:33;102089.55;;;13.97;100.00
49645;BME280;36494;50.730;-1.932;2022-11-12T09:07:57;102086.02;;;14.03;100.00
49645;BME280;36494;50.730;-1.932;2022-11-12T09:10:23;102083.15;;;14.07;100.00
49645;BME280;36494;50.730;-1.932;2022-11-12T09:12:49;102083.05;;;14.09;100.00
49645;BME280;36494;50.730;-1.932;2022-11-12T09:15:14;102086.17;;;14.09;100.00
49645;BME280;36494;50.730;-1.932;2022-11-12T09:17:39;102089.13;;;14.11;100.00
49645;BME280;36494;50.730;-1.932;2022-11-12T09:20:05;102081.58;;;14.19;100.00
49645;BME280;36494;50.730;-1.932;2022-11-12T09:22:30;102080.05;;;14.24;100.00
49645;BME280;36494;50.730;-1.932;2022-11-12T09:24:55;102081.97;;;14.24;100.00
49645;BME280;36494;50.730;-1.932;2022-11-12T09:27:21;102090.42;;;14.22;100.00
49645;BME280;36494;50.730;-1.932;2022-11-12T09:29:46;102090.44;;;14.23;100.00
49645;BME280;36494;50.730;-1.932;2022-11-12T09:32:12;102088.15;;;14.30;100.00
49645;BME280;36494;50.730;-1.932;2022-11-12T09:34:38;102088.57;;;14.35;100.00
49645;BME280;36494;50.730;-1.932;2022-11-12T09:37:03;102085.96;;;14.42;100.00
49645;BME280;36494;50.730;-1.932;2022-11-12T09:39:28;102083.65;;;14.45;100.00
49645;BME280;36494;50.730;-1.932;2022-11-12T09:41:53;102074.07;;;14.50;100.00
49645;BME280;36494;50.730;-1.932;2022-11-12T09:44:19;102065.72;;;14.54;100.00
49645;BME280;36494;50.730;-1.932;2022-11-12T09:46:46;102068.21;;;14.59;100.00
49645;BME280;36494;50.730;-1.932;2022-11-12T09:49:14;102065.39;;;14.64;100.00
49645;BME280;36494;50.730;-1.932;2022-11-12T09:51:36;102069.61;;;14.70;100.00
49645;BME280;36494;50.730;-1.932;2022-11-12T09:54:03;102071.24;;;14.71;100.00
49645;BME280;36494;50.730;-1.932;2022-11-12T09:56:25;102074.60;;;14.68;100.00
49645;BME280;36494;50.730;-1.932;2022-11-12T09:58:50;102071.37;;;14.62;100.00
49645;BME280;36494;50.730;-1.932;2022-11-12T10:01:18;102067.87;;;14.58;100.00
49645;BME280;36494;50.730;-1.932;2022-11-12T10:03:48;102074.17;;;14.62;100.00
49645;BME280;36494;50.730;-1.932;2022-11-12T10:06:10;102077.45;;;14.72;100.00
49645;BME280;36494;50.730;-1.932;2022-11-12T10:08:38;102075.14;;;14.76;100.00
49645;BME280;36494;50.730;-1.932;2022-11-12T10:11:05;102075.70;;;14.83;100.00
49645;BME280;36494;50.730;-1.932;2022-11-12T10:13:31;102070.95;;;14.84;100.00
49645;BME280;36494;50.730;-1.932;2022-11-12T10:15:58;102065.60;;;14.80;100.00
49645;BME280;36494;50.730;-1.932;2022-11-12T10:18:16;102069.73;;;14.88;100.00
49645;BME280;36494;50.730;-1.932;2022-11-12T10:20:43;102074.71;;;14.83;100.00
49645;BME280;36494;50.730;-1.932;2022-11-12T10:23:14;102074.31;;;14.84;100.00
49645;BME280;36494;50.730;-1.932;2022-11-12T10:25:31;102084.42;;;14.91;100.00
49645;BME280;36494;50.730;-1.932;2022-11-12T10:27:55;102092.90;;;15.06;100.00
49645;BME280;36494;50.730;-1.932;2022-11-12T10:30:21;102090.74;;;15.04;100.00
49645;BME280;36494;50.730;-1.932;2022-11-12T10:32:47;102089.03;;;15.02;100.00
49645;BME280;36494;50.730;-1.932;2022-11-12T10:35:14;102089.60;;;15.05;100.00
49645;BME280;36494;50.730;-1.932;2022-11-12T10:37:40;102083.75;;;14.97;100.00
49645;BME280;36494;50.730;-1.932;2022-11-12T10:42:26;102086.29;;;15.14;100.00
49645;BME280;36494;50.730;-1.932;2022-11-12T10:44:52;102087.40;;;15.12;100.00
49645;BME280;36494;50.730;-1.932;2022-11-12T10:47:22;102087.92;;;15.22;100.00
49645;BME280;36494;50.730;-1.932;2022-11-12T10:49:42;102085.00;;;15.25;100.00
49645;BME280;36494;50.730;-1.932;2022-11-12T10:52:20;102076.41;;;15.19;100.00
49645;BME280;36494;50.730;-1.932;2022-11-12T10:54:36;102073.50;;;15.30;100.00
49645;BME280;36494;50.730;-1.932;2022-11-12T10:59:25;102070.94;;;15.27;100.00
49645;BME280;36494;50.730;-1.932;2022-11-12T11:01:54;102065.60;;;15.23;100.00
49645;BME280;36494;50.730;-1.932;2022-11-12T11:04:21;102060.78;;;15.27;100.00
49645;BME280;36494;50.730;-1.932;2022-11-12T11:06:40;102055.53;;;15.30;100.00
49645;BME280;36494;50.730;-1.932;2022-11-12T11:09:15;102054.93;;;15.27;100.00
49645;BME280;36494;50.730;-1.932;2022-11-12T11:11:31;102055.60;;;15.38;100.00
49645;BME280;36494;50.730;-1.932;2022-11-12T11:14:07;102057.89;;;15.42;100.00
49645;BME280;36494;50.730;-1.932;2022-11-12T11:16:22;102054.20;;;15.44;100.00
49645;BME280;36494;50.730;-1.932;2022-11-12T11:18:49;102049.13;;;15.46;100.00
49645;BME280;36494;50.730;-1.932;2022-11-12T11:21:25;102046.04;;;15.48;100.00
49645;BME280;36494;50.730;-1.932;2022-11-12T11:23:44;102040.93;;;15.49;100.00
49645;BME280;36494;50.730;-1.932;2022-11-12T11:26:18;102039.26;;;15.41;100.00
49645;BME280;36494;50.730;-1.932;2022-11-12T11:28:32;102040.49;;;15.40;100.00
49645;BME280;36494;50.730;-1.932;2022-11-12T11:31:01;102035.09;;;15.53;100.00
49645;BME280;36494;50.730;-1.932;2022-11-12T11:33:24;102027.80;;;15.59;100.00
49645;BME280;36494;50.730;-1.932;2022-11-12T11:35:52;102025.57;;;15.56;100.00
49645;BME280;36494;50.730;-1.932;2022-11-12T11:38:20;102019.97;;;15.55;100.00
49645;BME280;36494;50.730;-1.932;2022-11-12T11:40:37;102011.33;;;15.50;100.00
49645;BME280;36494;50.730;-1.932;2022-11-12T11:43:14;102007.96;;;15.59;100.00
49645;BME280;36494;50.730;-1.932;2022-11-12T11:45:31;101997.98;;;15.65;100.00
49645;BME280;36494;50.730;-1.932;2022-11-12T11:47:53;101993.54;;;15.67;100.00
49645;BME280;36494;50.730;-1.932;2022-11-12T11:50:23;101984.16;;;15.67;100.00
49645;BME280;36494;50.730;-1.932;2022-11-12T11:52:44;101983.33;;;15.60;100.00
49645;BME280;36494;50.730;-1.932;2022-11-12T11:55:19;101986.00;;;15.69;100.00
49645;BME280;36494;50.730;-1.932;2022-11-12T11:57:36;101992.79;;;15.63;100.00
49645;BME280;36494;50.730;-1.932;2022-11-12T12:00:07;101990.19;;;15.67;100.00
49645;BME280;36494;50.730;-1.932;2022-11-12T12:02:39;101985.74;;;15.67;100.00
49645;BME280;36494;50.730;-1.932;2022-11-12T12:04:50;101987.22;;;15.74;100.00
49645;BME280;36494;50.730;-1.932;2022-11-12T12:07:20;101980.25;;;15.88;100.00
49645;BME280;36494;50.730;-1.932;2022-11-12T12:09:45;101977.35;;;16.09;100.00
49645;BME280;36494;50.730;-1.932;2022-11-12T12:12:12;101974.26;;;16.08;100.00
49645;BME280;36494;50.730;-1.932;2022-11-12T12:14:41;101966.15;;;16.05;100.00
49645;BME280;36494;50.730;-1.932;2022-11-12T12:17:03;101963.44;;;16.19;100.00
49645;BME280;36494;50.730;-1.932;2022-11-12T12:19:30;101965.35;;;16.20;100.00
49645;BME280;36494;50.730;-1.932;2022-11-12T12:21:49;101961.22;;;16.17;100.00
49645;BME280;36494;50.730;-1.932;2022-11-12T12:24:16;101959.78;;;16.16;100.00